sensor_id;sensor_type;location;lat;lon;timestamp;temperature;humidity
27026;DHT22;14565;48.626;8.978;2023-11-19T00:00:25;6.90;99.90
27026;DHT22;14565;48.626;8.978;2023-11-19T00:02:50;6.90;99.90
27026;DHT22;14565;48.626;8.978;2023-11-19T00:05:16;6.90;99.90
27026;DHT22;14565;48.626;8.978;2023-11-19T00:07:42;6.90;99.90
27026;DHT22;14565;48.626;8.978;2023-11-19T00:10:11;6.90;99.90
27026;DHT22;14565;48.626;8.978;2023-11-19T00:12:38;7.00;99.90
27026;DHT22;14565;48.626;8.978;2023-11-19T00:15:04;7.00;99.90
27026;DHT22;14565;48.626;8.978;2023-11-19T00:17:30;7.10;99.90
27026;DHT22;14565;48.626;8.978;2023-11-19T00:19:55;7.10;99.90
27026;DHT22;14565;48.626;8.978;2023-11-19T00:22:21;7.10;99.90
27026;DHT22;14565;48.626;8.978;2023-11-19T00:24:47;7.00;99.90
27026;DHT22;14565;48.626;8.978;2023-11-19T00:27:12;7.10;99.90
27026;DHT22;14565;48.626;8.978;2023-11-19T00:29:38;7.20;99.90
27026;DHT22;14565;48.626;8.978;2023-11-19T00:32:03;7.20;99.90
27026;DHT22;14565;48.626;8.978;2023-11-19T00:34:30;7.20;99.90
27026;DHT22;14565;48.626;8.978;2023-11-19T00:36:56;7.20;99.90
27026;DHT22;14565;48.626;8.978;2023-11-19T00:39:21;7.30;99.90
27026;DHT22;14565;48.626;8.978;2023-11-19T00:41:48;7.30;99.90
27026;DHT22;14565;48.626;8.978;2023-11-19T00:44:13;7.40;99.90
27026;DHT22;14565;48.626;8.978;2023-11-19T00:46:39;7.40;99.90
27026;DHT22;14565;48.626;8.978;2023-11-19T00:49:05;7.40;99.90
27026;DHT22;14565;48.626;8.978;2023-11-19T00:51:30;7.50;99.90
27026;DHT22;14565;48.626;8.978;2023-11-19T00:53:57;7.60;99.90
27026;DHT22;14565;48.626;8.978;2023-11-19T00:56:22;7.50;99.90
27026;DHT22;14565;48.626;8.978;2023-11-19T00:58:48;7.60;99.90
27026;DHT22;14565;48.626;8.978;2023-11-19T01:01:13;7.60;99.90
27026;DHT22;14565;48.626;8.978;2023-11-19T01:03:39;7.60;99.90
27026;DHT22;14565;48.626;8.978;2023-11-19T01:06:05;7.60;99.90
27026;DHT22;14565;48.626;8.978;2023-11-19T01:08:30;7.60;99.90
27026;DHT22;14565;48.626;8.978;2023-11-19T01:10:57;7.60;99.90
27026;DHT22;14565;48.626;8.978;2023-11-19T01:13:22;7.70;99.90
27026;DHT22;14565;48.626;8.978;2023-11-19T01:15:48;7.70;99.90
27026;DHT22;14565;48.626;8.978;2023-11-19T01:18:13;7.80;99.90
27026;DHT22;14565;48.626;8.978;2023-11-19T01:20:39;7.90;99.90
27026;DHT22;14565;48.626;8.978;2023-11-19T01:23:04;7.80;99.90
27026;DHT22;14565;48.626;8.978;2023-11-19T01:25:30;7.80;99.90
27026;DHT22;14565;48.626;8.978;2023-11-19T01:27:55;7.90;99.90
27026;DHT22;14565;48.626;8.978;2023-11-19T01:30:24;7.90;99.90
27026;DHT22;14565;48.626;8.978;2023-11-19T01:32:49;7.90;99.90
27026;DHT22;14565;48.626;8.978;2023-11-19T01:35:15;7.90;99.90
27026;DHT22;14565;48.626;8.978;2023-11-19T01:37:40;7.90;99.90
27026;DHT22;14565;48.626;8.978;2023-11-19T01:40:06;7.90;99.90
27026;DHT22;14565;48.626;8.978;2023-11-19T01:42:36;7.90;99.90
27026;DHT22;14565;48.626;8.978;2023-11-19T01:45:03;8.00;99.90
27026;DHT22;14565;48.626;8.978;2023-11-19T01:47:32;7.90;99.90
27026;DHT22;14565;48.626;8.978;2023-11-19T01:49:57;8.00;99.90
27026;DHT22;14565;48.626;8.978;2023-11-19T01:52:24;8.00;99.90
27026;DHT22;14565;48.626;8.978;2023-11-19T01:54:50;8.00;99.90
27026;DHT22;14565;48.626;8.978;2023-11-19T01:57:17;8.00;99.90
27026;DHT22;14565;48.626;8.978;2023-11-19T01:59:43;8.10;99.90
27026;DHT22;14565;48.626;8.978;2023-11-19T02:02:08;8.10;99.90
27026;DHT22;14565;48.626;8.978;2023-11-19T02:04:34;8.20;99.90
27026;DHT22;14565;48.626;8.978;2023-11-19T02:07:00;8.10;99.90
27026;DHT22;14565;48.626;8.978;2023-11-19T02:09:25;8.20;99.90
27026;DHT22;14565;48.626;8.978;2023-11-19T02:11:52;8.20;99.90
27026;DHT22;14565;48.626;8.978;2023-11-19T02:14:19;8.20;99.90
27026;DHT22;14565;48.626;8.978;2023-11-19T02:16:47;8.20;99.90
27026;DHT22;14565;48.626;8.978;2023-11-19T02:19:12;8.30;99.90
27026;DHT22;14565;48.626;8.978;2023-11-19T02:21:38;8.30;99.90
27026;DHT22;14565;48.626;8.978;2023-11-19T02:24:04;8.30;99.90
27026;DHT22;14565;48.626;8.978;2023-11-19T02:26:39;8.30;99.90
27026;DHT22;14565;48.626;8.978;2023-11-19T02:29:09;8.50;99.90
27026;DHT22;14565;48.626;8.978;2023-11-19T02:31:34;8.50;99.90
27026;DHT22;14565;48.626;8.978;2023-11-19T02:34:00;8.50;99.90
27026;DHT22;14565;48.626;8.978;2023-11-19T02:36:27;8.50;99.90
27026;DHT22;14565;48.626;8.978;2023-11-19T02:38:53;8.50;99.90
27026;DHT22;14565;48.626;8.978;2023-11-19T02:41:19;8.50;99.90
27026;DHT22;14565;48.626;8.978;2023-11-19T02:43:44;8.60;99.90
27026;DHT22;14565;48.626;8.978;2023-11-19T02:46:10;8.60;99.90
27026;DHT22;14565;48.626;8.978;2023-11-19T02:48:36;8.70;99.90
27026;DHT22;14565;48.626;8.978;2023-11-19T02:51:02;8.70;99.90
27026;DHT22;14565;48.626;8.978;2023-11-19T02:53:29;8.80;99.90
27026;DHT22;14565;48.626;8.978;2023-11-19T02:55:54;8.70;99.90
27026;DHT22;14565;48.626;8.978;2023-11-19T02:58:27;8.80;99.90
27026;DHT22;14565;48.626;8.978;2023-11-19T03:00:54;8.80;99.90
27026;DHT22;14565;48.626;8.978;2023-11-19T03:03:23;8.90;99.90
27026;DHT22;14565;48.626;8.978;2023-11-19T03:05:54;8.80;99.90
27026;DHT22;14565;48.626;8.978;2023-11-19T03:08:19;8.90;99.90
27026;DHT22;14565;48.626;8.978;2023-11-19T03:10:45;8.80;99.90
27026;DHT22;14565;48.626;8.978;2023-11-19T03:13:11;8.90;99.90
27026;DHT22;14565;48.626;8.978;2023-11-19T03:15:38;8.90;99.90
27026;DHT22;14565;48.626;8.978;2023-11-19T03:18:03;8.90;99.90
27026;DHT22;14565;48.626;8.978;2023-11-19T03:20:29;8.90;99.90
27026;DHT22;14565;48.626;8.978;2023-11-19T03:22:55;9.00;99.90
27026;DHT22;14565;48.626;8.978;2023-11-19T03:25:24;8.90;99.90
27026;DHT22;14565;48.626;8.978;2023-11-19T03:27:50;8.90;99.90
27026;DHT22;14565;48.626;8.978;2023-11-19T03:30:16;9.00;99.90
27026;DHT22;14565;48.626;8.978;2023-11-19T03:32:42;8.80;99.90
27026;DHT22;14565;48.626;8.978;2023-11-19T03:35:08;9.00;99.90
27026;DHT22;14565;48.626;8.978;2023-11-19T03:37:34;9.00;99.90
27026;DHT22;14565;48.626;8.978;2023-11-19T03:40:01;9.00;99.90
27026;DHT22;14565;48.626;8.978;2023-11-19T03:42:26;9.00;99.90
27026;DHT22;14565;48.626;8.978;2023-11-19T03:44:52;9.10;99.90
27026;DHT22;14565;48.626;8.978;2023-11-19T03:47:18;9.00;99.90
27026;DHT22;14565;48.626;8.978;2023-11-19T03:49:50;9.00;99.90
27026;DHT22;14565;48.626;8.978;2023-11-19T03:52:16;9.10;99.90
27026;DHT22;14565;48.626;8.978;2023-11-19T03:54:42;9.10;99.90
27026;DHT22;14565;48.626;8.978;2023-11-19T03:57:07;9.10;99.90
27026;DHT22;14565;48.626;8.978;2023-11-19T03:59:33;9.00;99.90
27026;DHT22;14565;48.626;8.978;2023-11-19T04:01:59;9.10;99.90
27026;DHT22;14565;48.626;8.978;2023-11-19T04:04:26;9.10;99.90
27026;DHT22;14565;48.626;8.978;2023-11-19T04:06:52;9.10;99.90
27026;DHT22;14565;48.626;8.978;2023-11-19T04:09:18;9.10;99.90
27026;DHT22;14565;48.626;8.978;2023-11-19T04:11:43;9.10;99.90
27026;DHT22;14565;48.626;8.978;2023-11-19T04:14:09;9.00;99.90
27026;DHT22;14565;48.626;8.978;2023-11-19T04:16:35;9.00;99.90
27026;DHT22;14565;48.626;8.978;2023-11-19T04:19:00;9.10;99.90
27026;DHT22;14565;48.626;8.978;2023-11-19T04:21:26;9.10;99.90
27026;DHT22;14565;48.626;8.978;2023-11-19T04:23:52;9.10;99.90
27026;DHT22;14565;48.626;8.978;2023-11-19T04:26:17;9.10;99.90
27026;DHT22;14565;48.626;8.978;2023-11-19T04:28:43;9.00;99.90
27026;DHT22;14565;48.626;8.978;2023-11-19T04:31:08;9.10;99.90
27026;DHT22;14565;48.626;8.978;2023-11-19T04:33:34;9.10;99.90
27026;DHT22;14565;48.626;8.978;2023-11-19T04:36:00;9.10;99.90
27026;DHT22;14565;48.626;8.978;2023-11-19T04:38:25;9.10;99.90
27026;DHT22;14565;48.626;8.978;2023-11-19T04:40:52;9.00;99.90
27026;DHT22;14565;48.626;8.978;2023-11-19T04:43:17;9.10;99.90
27026;DHT22;14565;48.626;8.978;2023-11-19T04:45:43;9.10;99.90
27026;DHT22;14565;48.626;8.978;2023-11-19T04:48:08;9.20;99.90
27026;DHT22;14565;48.626;8.978;2023-11-19T04:50:34;9.20;99.90
27026;DHT22;14565;48.626;8.978;2023-11-19T04:53:00;9.20;99.90
27026;DHT22;14565;48.626;8.978;2023-11-19T04:55:25;9.10;99.90
27026;DHT22;14565;48.626;8.978;2023-11-19T04:57:53;9.20;99.90
27026;DHT22;14565;48.626;8.978;2023-11-19T05:00:19;9.20;99.90
27026;DHT22;14565;48.626;8.978;2023-11-19T05:02:44;9.20;99.90
27026;DHT22;14565;48.626;8.978;2023-11-19T05:05:10;9.20;99.90
27026;DHT22;14565;48.626;8.978;2023-11-19T05:07:36;9.20;99.90
27026;DHT22;14565;48.626;8.978;2023-11-19T05:10:01;9.20;99.90
27026;DHT22;14565;48.626;8.978;2023-11-19T05:12:29;9.20;99.90
27026;DHT22;14565;48.626;8.978;2023-11-19T05:14:54;9.30;99.90
27026;DHT22;14565;48.626;8.978;2023-11-19T05:17:20;9.30;99.90
27026;DHT22;14565;48.626;8.978;2023-11-19T05:19:45;9.30;99.90
27026;DHT22;14565;48.626;8.978;2023-11-19T05:22:11;9.30;99.90
27026;DHT22;14565;48.626;8.978;2023-11-19T05:24:36;9.30;99.90
27026;DHT22;14565;48.626;8.978;2023-11-19T05:27:02;9.30;99.90
27026;DHT22;14565;48.626;8.978;2023-11-19T05:29:27;9.30;99.90
27026;DHT22;14565;48.626;8.978;2023-11-19T05:31:53;9.30;99.90
27026;DHT22;14565;48.626;8.978;2023-11-19T05:34:20;9.30;99.90
27026;DHT22;14565;48.626;8.978;2023-11-19T05:36:46;9.40;99.90
27026;DHT22;14565;48.626;8.978;2023-11-19T05:39:12;9.40;99.90
27026;DHT22;14565;48.626;8.978;2023-11-19T05:41:37;9.30;99.90
27026;DHT22;14565;48.626;8.978;2023-11-19T05:44:03;9.30;99.90
27026;DHT22;14565;48.626;8.978;2023-11-19T05:46:28;9.40;99.90
27026;DHT22;14565;48.626;8.978;2023-11-19T05:48:54;9.30;99.90
27026;DHT22;14565;48.626;8.978;2023-11-19T05:51:19;9.40;99.90
27026;DHT22;14565;48.626;8.978;2023-11-19T05:53:45;9.40;99.90
27026;DHT22;14565;48.626;8.978;2023-11-19T05:56:15;9.50;99.90
27026;DHT22;14565;48.626;8.978;2023-11-19T05:58:46;9.40;99.90
27026;DHT22;14565;48.626;8.978;2023-11-19T06:01:14;9.50;99.90
27026;DHT22;14565;48.626;8.978;2023-11-19T06:03:40;9.50;99.90
27026;DHT22;14565;48.626;8.978;2023-11-19T06:06:06;9.50;99.90
27026;DHT22;14565;48.626;8.978;2023-11-19T06:08:32;9.40;99.90
27026;DHT22;14565;48.626;8.978;2023-11-19T06:10:57;9.50;99.90
27026;DHT22;14565;48.626;8.978;2023-11-19T06:13:23;9.40;99.90
27026;DHT22;14565;48.626;8.978;2023-11-19T06:15:49;9.50;99.90
27026;DHT22;14565;48.626;8.978;2023-11-19T06:18:16;9.50;99.90
27026;DHT22;14565;48.626;8.978;2023-11-19T06:20:41;9.50;99.90
27026;DHT22;14565;48.626;8.978;2023-11-19T06:23:07;9.50;99.90
27026;DHT22;14565;48.626;8.978;2023-11-19T06:25:32;9.50;99.90
27026;DHT22;14565;48.626;8.978;2023-11-19T06:28:00;9.50;99.90
27026;DHT22;14565;48.626;8.978;2023-11-19T06:30:26;9.50;99.90
27026;DHT22;14565;48.626;8.978;2023-11-19T06:32:53;9.50;99.90
27026;DHT22;14565;48.626;8.978;2023-11-19T06:35:19;9.60;99.90
27026;DHT22;14565;48.626;8.978;2023-11-19T06:37:44;9.50;99.90
27026;DHT22;14565;48.626;8.978;2023-11-19T06:40:10;9.60;99.90
27026;DHT22;14565;48.626;8.978;2023-11-19T06:42:37;9.60;99.90
27026;DHT22;14565;48.626;8.978;2023-11-19T06:45:03;9.60;99.90
27026;DHT22;14565;48.626;8.978;2023-11-19T06:47:29;9.60;99.90
27026;DHT22;14565;48.626;8.978;2023-11-19T06:49:55;9.60;99.90
27026;DHT22;14565;48.626;8.978;2023-11-19T06:52:21;9.60;99.90
27026;DHT22;14565;48.626;8.978;2023-11-19T06:54:46;9.60;99.90
27026;DHT22;14565;48.626;8.978;2023-11-19T06:57:12;9.60;99.90
27026;DHT22;14565;48.626;8.978;2023-11-19T06:59:38;9.70;99.90
27026;DHT22;14565;48.626;8.978;2023-11-19T07:02:03;9.70;99.90
27026;DHT22;14565;48.626;8.978;2023-11-19T07:04:30;9.70;99.90
27026;DHT22;14565;48.626;8.978;2023-11-19T07:06:55;9.70;99.90
27026;DHT22;14565;48.626;8.978;2023-11-19T07:09:21;9.70;99.90
27026;DHT22;14565;48.626;8.978;2023-11-19T07:11:46;9.70;99.90
27026;DHT22;14565;48.626;8.978;2023-11-19T07:14:12;9.70;99.90
27026;DHT22;14565;48.626;8.978;2023-11-19T07:16:37;9.80;99.90
27026;DHT22;14565;48.626;8.978;2023-11-19T07:19:04;9.80;99.90
27026;DHT22;14565;48.626;8.978;2023-11-19T07:21:30;9.80;99.90
27026;DHT22;14565;48.626;8.978;2023-11-19T07:23:56;9.80;99.90
27026;DHT22;14565;48.626;8.978;2023-11-19T07:26:22;9.90;99.90
27026;DHT22;14565;48.626;8.978;2023-11-19T07:28:48;9.90;99.90
27026;DHT22;14565;48.626;8.978;2023-11-19T07:31:14;9.90;99.90
27026;DHT22;14565;48.626;8.978;2023-11-19T07:33:39;9.90;99.90
27026;DHT22;14565;48.626;8.978;2023-11-19T07:36:08;9.90;99.90
27026;DHT22;14565;48.626;8.978;2023-11-19T07:38:33;9.90;99.90
27026;DHT22;14565;48.626;8.978;2023-11-19T07:40:59;9.90;99.90
27026;DHT22;14565;48.626;8.978;2023-11-19T07:43:24;9.90;99.90
27026;DHT22;14565;48.626;8.978;2023-11-19T07:45:50;10.00;99.90
27026;DHT22;14565;48.626;8.978;2023-11-19T07:48:15;10.00;99.90
27026;DHT22;14565;48.626;8.978;2023-11-19T07:50:41;9.90;99.90
27026;DHT22;14565;48.626;8.978;2023-11-19T07:53:06;10.00;99.90
27026;DHT22;14565;48.626;8.978;2023-11-19T07:55:33;10.00;99.90
27026;DHT22;14565;48.626;8.978;2023-11-19T07:57:58;10.00;99.90
27026;DHT22;14565;48.626;8.978;2023-11-19T08:00:24;10.00;99.90
27026;DHT22;14565;48.626;8.978;2023-11-19T08:02:49;10.00;99.90
27026;DHT22;14565;48.626;8.978;2023-11-19T08:05:15;10.10;99.90
27026;DHT22;14565;48.626;8.978;2023-11-19T08:07:41;9.90;99.90
27026;DHT22;14565;48.626;8.978;2023-11-19T08:10:07;10.10;99.90
27026;DHT22;14565;48.626;8.978;2023-11-19T08:12:35;10.00;99.90
27026;DHT22;14565;48.626;8.978;2023-11-19T08:15:01;10.00;99.90
27026;DHT22;14565;48.626;8.978;2023-11-19T08:17:27;10.00;99.90
27026;DHT22;14565;48.626;8.978;2023-11-19T08:19:52;10.10;99.90
27026;DHT22;14565;48.626;8.978;2023-11-19T08:22:18;10.10;99.90
27026;DHT22;14565;48.626;8.978;2023-11-19T08:24:43;10.00;99.90
27026;DHT22;14565;48.626;8.978;2023-11-19T08:27:09;10.10;99.90
27026;DHT22;14565;48.626;8.978;2023-11-19T08:29:34;10.20;99.90
27026;DHT22;14565;48.626;8.978;2023-11-19T08:32:00;10.20;99.90
27026;DHT22;14565;48.626;8.978;2023-11-19T08:34:27;10.20;99.90
27026;DHT22;14565;48.626;8.978;2023-11-19T08:36:52;10.20;99.90
27026;DHT22;14565;48.626;8.978;2023-11-19T08:39:19;10.30;99.90
27026;DHT22;14565;48.626;8.978;2023-11-19T08:41:44;10.50;99.90
27026;DHT22;14565;48.626;8.978;2023-11-19T08:44:10;10.70;99.90
27026;DHT22;14565;48.626;8.978;2023-11-19T08:46:35;10.80;99.90
27026;DHT22;14565;48.626;8.978;2023-11-19T08:49:01;10.80;99.90
27026;DHT22;14565;48.626;8.978;2023-11-19T08:51:26;10.70;99.90
27026;DHT22;14565;48.626;8.978;2023-11-19T08:53:53;10.80;99.90
27026;DHT22;14565;48.626;8.978;2023-11-19T08:56:19;10.80;99.90
27026;DHT22;14565;48.626;8.978;2023-11-19T08:58:44;10.70;99.90
27026;DHT22;14565;48.626;8.978;2023-11-19T09:01:10;10.80;99.90
27026;DHT22;14565;48.626;8.978;2023-11-19T09:03:35;10.80;99.90
27026;DHT22;14565;48.626;8.978;2023-11-19T09:06:02;10.90;99.90
27026;DHT22;14565;48.626;8.978;2023-11-19T09:08:27;11.00;99.90
27026;DHT22;14565;48.626;8.978;2023-11-19T09:10:53;11.10;99.90
27026;DHT22;14565;48.626;8.978;2023-11-19T09:13:18;11.10;99.90
27026;DHT22;14565;48.626;8.978;2023-11-19T09:15:44;11.40;99.90
27026;DHT22;14565;48.626;8.978;2023-11-19T09:18:09;11.30;99.90
27026;DHT22;14565;48.626;8.978;2023-11-19T09:20:35;11.30;99.90
27026;DHT22;14565;48.626;8.978;2023-11-19T09:23:04;11.30;99.90
27026;DHT22;14565;48.626;8.978;2023-11-19T09:25:30;11.30;99.90
27026;DHT22;14565;48.626;8.978;2023-11-19T09:27:56;11.50;99.90
27026;DHT22;14565;48.626;8.978;2023-11-19T09:30:21;11.50;99.90
27026;DHT22;14565;48.626;8.978;2023-11-19T09:32:48;11.60;99.90
27026;DHT22;14565;48.626;8.978;2023-11-19T09:35:13;11.70;99.90
27026;DHT22;14565;48.626;8.978;2023-11-19T09:37:40;11.70;99.90
27026;DHT22;14565;48.626;8.978;2023-11-19T09:40:05;11.70;99.90
27026;DHT22;14565;48.626;8.978;2023-11-19T09:42:44;11.60;99.90
27026;DHT22;14565;48.626;8.978;2023-11-19T09:45:13;11.60;99.90
27026;DHT22;14565;48.626;8.978;2023-11-19T09:47:39;11.70;99.90
27026;DHT22;14565;48.626;8.978;2023-11-19T09:50:05;11.70;99.90
27026;DHT22;14565;48.626;8.978;2023-11-19T09:52:31;11.60;99.90
27026;DHT22;14565;48.626;8.978;2023-11-19T09:54:56;11.70;99.90
27026;DHT22;14565;48.626;8.978;2023-11-19T09:57:22;11.90;99.90
27026;DHT22;14565;48.626;8.978;2023-11-19T09:59:48;11.90;99.90
27026;DHT22;14565;48.626;8.978;2023-11-19T10:02:13;11.80;99.90
27026;DHT22;14565;48.626;8.978;2023-11-19T10:04:39;11.80;99.90
27026;DHT22;14565;48.626;8.978;2023-11-19T10:07:05;11.90;99.90
27026;DHT22;14565;48.626;8.978;2023-11-19T10:09:31;12.00;99.90
27026;DHT22;14565;48.626;8.978;2023-11-19T10:11:56;11.90;99.90
27026;DHT22;14565;48.626;8.978;2023-11-19T10:14:22;12.00;99.90
27026;DHT22;14565;48.626;8.978;2023-11-19T10:16:48;12.00;99.90
27026;DHT22;14565;48.626;8.978;2023-11-19T10:19:20;12.00;99.90
27026;DHT22;14565;48.626;8.978;2023-11-19T10:21:46;11.90;99.90
27026;DHT22;14565;48.626;8.978;2023-11-19T10:24:11;11.80;99.90
27026;DHT22;14565;48.626;8.978;2023-11-19T10:26:37;11.90;99.90
27026;DHT22;14565;48.626;8.978;2023-11-19T10:29:02;11.90;99.90
27026;DHT22;14565;48.626;8.978;2023-11-19T10:31:29;12.00;99.90
27026;DHT22;14565;48.626;8.978;2023-11-19T10:33:54;12.00;99.90
27026;DHT22;14565;48.626;8.978;2023-11-19T10:36:20;12.00;99.90
27026;DHT22;14565;48.626;8.978;2023-11-19T10:41:27;12.00;99.90
27026;DHT22;14565;48.626;8.978;2023-11-19T10:43:53;11.90;99.90
27026;DHT22;14565;48.626;8.978;2023-11-19T10:46:18;12.10;99.90
27026;DHT22;14565;48.626;8.978;2023-11-19T10:48:48;12.30;99.90
27026;DHT22;14565;48.626;8.978;2023-11-19T10:51:13;12.50;99.90
27026;DHT22;14565;48.626;8.978;2023-11-19T10:53:46;12.90;99.90
27026;DHT22;14565;48.626;8.978;2023-11-19T10:56:11;13.00;99.90
27026;DHT22;14565;48.626;8.978;2023-11-19T10:58:44;12.90;99.90
27026;DHT22;14565;48.626;8.978;2023-11-19T11:01:15;12.90;99.90
27026;DHT22;14565;48.626;8.978;2023-11-19T11:03:41;12.80;99.90
27026;DHT22;14565;48.626;8.978;2023-11-19T11:06:08;12.90;99.90
27026;DHT22;14565;48.626;8.978;2023-11-19T11:08:36;12.80;99.90
27026;DHT22;14565;48.626;8.978;2023-11-19T11:11:02;12.90;99.90
27026;DHT22;14565;48.626;8.978;2023-11-19T11:13:29;12.80;99.90
27026;DHT22;14565;48.626;8.978;2023-11-19T11:15:57;12.70;99.90
27026;DHT22;14565;48.626;8.978;2023-11-19T11:18:26;12.70;99.90
27026;DHT22;14565;48.626;8.978;2023-11-19T11:20:52;12.70;99.90
27026;DHT22;14565;48.626;8.978;2023-11-19T11:28:29;12.60;99.90
27026;DHT22;14565;48.626;8.978;2023-11-19T11:36:23;12.70;99.90
27026;DHT22;14565;48.626;8.978;2023-11-19T11:38:50;12.80;99.90
27026;DHT22;14565;48.626;8.978;2023-11-19T11:41:22;12.70;99.90
27026;DHT22;14565;48.626;8.978;2023-11-19T11:43:48;12.70;99.90
27026;DHT22;14565;48.626;8.978;2023-11-19T11:48:54;12.80;99.90
27026;DHT22;14565;48.626;8.978;2023-11-19T11:51:36;12.80;99.90
27026;DHT22;14565;48.626;8.978;2023-11-19T11:54:07;12.80;99.90
27026;DHT22;14565;48.626;8.978;2023-11-19T11:56:33;12.70;99.90
27026;DHT22;14565;48.626;8.978;2023-11-19T11:58:59;12.70;99.90
27026;DHT22;14565;48.626;8.978;2023-11-19T12:01:25;12.70;99.90
27026;DHT22;14565;48.626;8.978;2023-11-19T12:03:55;12.80;99.90
27026;DHT22;14565;48.626;8.978;2023-11-19T12:06:21;12.90;99.90
27026;DHT22;14565;48.626;8.978;2023-11-19T12:08:47;12.70;99.90
27026;DHT22;14565;48.626;8.978;2023-11-19T12:11:12;12.80;99.90
27026;DHT22;14565;48.626;8.978;2023-11-19T12:13:52;12.90;99.90
27026;DHT22;14565;48.626;8.978;2023-11-19T12:16:18;13.00;99.90
27026;DHT22;14565;48.626;8.978;2023-11-19T12:18:43;13.00;99.90
27026;DHT22;14565;48.626;8.978;2023-11-19T12:21:10;13.10;99.90
27026;DHT22;14565;48.626;8.978;2023-11-19T12:23:36;13.20;99.90
27026;DHT22;14565;48.626;8.978;2023-11-19T12:26:09;13.40;99.90
27026;DHT22;14565;48.626;8.978;2023-11-19T12:28:56;13.20;99.90
27026;DHT22;14565;48.626;8.978;2023-11-19T12:31:22;13.30;99.90
27026;DHT22;14565;48.626;8.978;2023-11-19T12:33:47;13.30;99.90
27026;DHT22;14565;48.626;8.978;2023-11-19T12:36:13;13.20;99.90
27026;DHT22;14565;48.626;8.978;2023-11-19T12:38:38;13.10;99.90
27026;DHT22;14565;48.626;8.978;2023-11-19T12:41:08;13.20;99.90
27026;DHT22;14565;48.626;8.978;2023-11-19T12:43:36;13.40;99.90
27026;DHT22;14565;48.626;8.978;2023-11-19T12:46:03;13.50;99.90
27026;DHT22;14565;48.626;8.978;2023-11-19T12:48:29;13.40;99.90
27026;DHT22;14565;48.626;8.978;2023-11-19T12:50:55;13.30;99.90
27026;DHT22;14565;48.626;8.978;2023-11-19T12:53:21;13.30;99.90
27026;DHT22;14565;48.626;8.978;2023-11-19T12:55:48;13.50;99.90
27026;DHT22;14565;48.626;8.978;2023-11-19T12:58:35;13.40;99.90
27026;DHT22;14565;48.626;8.978;2023-11-19T13:01:07;13.40;99.90
27026;DHT22;14565;48.626;8.978;2023-11-19T13:03:38;13.50;99.90
27026;DHT22;14565;48.626;8.978;2023-11-19T13:06:15;13.40;99.90
27026;DHT22;14565;48.626;8.978;2023-11-19T13:08:47;13.40;99.90
27026;DHT22;14565;48.626;8.978;2023-11-19T13:11:15;13.40;99.90
27026;DHT22;14565;48.626;8.978;2023-11-19T13:13:55;13.30;99.90
27026;DHT22;14565;48.626;8.978;2023-11-19T13:16:21;13.20;99.90
27026;DHT22;14565;48.626;8.978;2023-11-19T13:18:47;13.20;99.90
27026;DHT22;14565;48.626;8.978;2023-11-19T13:21:12;13.20;99.90
27026;DHT22;14565;48.626;8.978;2023-11-19T13:23:38;13.20;99.90
27026;DHT22;14565;48.626;8.978;2023-11-19T13:26:04;13.20;99.90
27026;DHT22;14565;48.626;8.978;2023-11-19T13:28:29;13.10;99.90
27026;DHT22;14565;48.626;8.978;2023-11-19T13:30:55;13.20;99.90
27026;DHT22;14565;48.626;8.978;2023-11-19T13:33:20;13.30;99.90
27026;DHT22;14565;48.626;8.978;2023-11-19T13:35:46;13.40;99.90
27026;DHT22;14565;48.626;8.978;2023-11-19T13:38:12;13.60;99.90
27026;DHT22;14565;48.626;8.978;2023-11-19T13:40:37;13.40;99.90
27026;DHT22;14565;48.626;8.978;2023-11-19T13:43:04;13.30;99.90
27026;DHT22;14565;48.626;8.978;2023-11-19T13:45:30;13.10;99.90
27026;DHT22;14565;48.626;8.978;2023-11-19T13:47:55;13.00;99.90
27026;DHT22;14565;48.626;8.978;2023-11-19T13:50:21;12.90;99.90
27026;DHT22;14565;48.626;8.978;2023-11-19T13:52:48;13.00;99.90
27026;DHT22;14565;48.626;8.978;2023-11-19T13:55:14;12.90;99.90
27026;DHT22;14565;48.626;8.978;2023-11-19T13:57:40;12.90;99.90
27026;DHT22;14565;48.626;8.978;2023-11-19T14:00:06;13.00;99.90
27026;DHT22;14565;48.626;8.978;2023-11-19T14:02:36;13.00;99.90
27026;DHT22;14565;48.626;8.978;2023-11-19T14:05:01;13.00;99.90
27026;DHT22;14565;48.626;8.978;2023-11-19T14:07:27;13.00;99.90
27026;DHT22;14565;48.626;8.978;2023-11-19T14:09:53;13.00;99.90
27026;DHT22;14565;48.626;8.978;2023-11-19T14:12:19;13.00;99.90
27026;DHT22;14565;48.626;8.978;2023-11-19T14:14:44;13.00;99.90
27026;DHT22;14565;48.626;8.978;2023-11-19T14:17:10;13.10;99.90
27026;DHT22;14565;48.626;8.978;2023-11-19T14:19:36;12.90;99.90
27026;DHT22;14565;48.626;8.978;2023-11-19T14:22:03;12.80;99.90
27026;DHT22;14565;48.626;8.978;2023-11-19T14:24:29;12.80;99.90
27026;DHT22;14565;48.626;8.978;2023-11-19T14:26:54;12.80;99.90
27026;DHT22;14565;48.626;8.978;2023-11-19T14:29:23;12.70;99.90
27026;DHT22;14565;48.626;8.978;2023-11-19T14:31:48;12.70;99.90
27026;DHT22;14565;48.626;8.978;2023-11-19T14:34:14;12.60;99.90
27026;DHT22;14565;48.626;8.978;2023-11-19T14:36:39;12.50;99.90
27026;DHT22;14565;48.626;8.978;2023-11-19T14:39:05;12.40;99.90
27026;DHT22;14565;48.626;8.978;2023-11-19T14:41:32;12.20;99.90
27026;DHT22;14565;48.626;8.978;2023-11-19T14:43:57;12.20;99.90
27026;DHT22;14565;48.626;8.978;2023-11-19T14:46:23;12.10;99.90
27026;DHT22;14565;48.626;8.978;2023-11-19T14:48:48;12.10;99.90
27026;DHT22;14565;48.626;8.978;2023-11-19T14:51:14;12.00;99.90
27026;DHT22;14565;48.626;8.978;2023-11-19T14:53:40;12.00;99.90
27026;DHT22;14565;48.626;8.978;2023-11-19T14:56:05;12.10;99.90
27026;DHT22;14565;48.626;8.978;2023-11-19T14:58:35;12.00;99.90
27026;DHT22;14565;48.626;8.978;2023-11-19T15:01:00;11.90;99.90
27026;DHT22;14565;48.626;8.978;2023-11-19T15:03:29;11.80;99.90
27026;DHT22;14565;48.626;8.978;2023-11-19T15:05:57;11.70;99.90
27026;DHT22;14565;48.626;8.978;2023-11-19T15:08:23;11.70;99.90
27026;DHT22;14565;48.626;8.978;2023-11-19T15:10:48;11.60;99.90
27026;DHT22;14565;48.626;8.978;2023-11-19T15:13:14;11.60;99.90
27026;DHT22;14565;48.626;8.978;2023-11-19T15:15:39;11.50;99.90
27026;DHT22;14565;48.626;8.978;2023-11-19T15:18:05;11.40;99.90
27026;DHT22;14565;48.626;8.978;2023-11-19T15:20:31;11.30;99.90
27026;DHT22;14565;48.626;8.978;2023-11-19T15:22:57;11.30;99.90
27026;DHT22;14565;48.626;8.978;2023-11-19T15:25:22;11.40;99.90
27026;DHT22;14565;48.626;8.978;2023-11-19T15:27:49;11.30;99.90
27026;DHT22;14565;48.626;8.978;2023-11-19T15:30:15;11.30;99.90
27026;DHT22;14565;48.626;8.978;2023-11-19T15:32:41;11.30;99.90
27026;DHT22;14565;48.626;8.978;2023-11-19T15:35:08;11.20;99.90
27026;DHT22;14565;48.626;8.978;2023-11-19T15:37:33;11.10;99.90
27026;DHT22;14565;48.626;8.978;2023-11-19T15:39:59;11.10;99.90
27026;DHT22;14565;48.626;8.978;2023-11-19T15:42:24;11.10;99.90
27026;DHT22;14565;48.626;8.978;2023-11-19T15:44:50;11.10;99.90
27026;DHT22;14565;48.626;8.978;2023-11-19T15:47:16;10.90;99.90